createdAt,value
2023-03-01T00:01:28.877Z,-0.80
2023-03-01T00:03:56.849Z,-0.90
2023-03-01T00:06:24.172Z,-0.90
2023-03-01T00:08:51.506Z,-0.90
2023-03-01T00:11:26.841Z,-0.90
2023-03-01T00:13:56.877Z,-0.90
2023-03-01T00:16:27.507Z,-0.90
2023-03-01T00:18:58.196Z,-0.90
2023-03-01T00:21:25.560Z,-0.90
2023-03-01T00:23:53.097Z,-0.90
2023-03-01T00:26:21.832Z,-0.90
2023-03-01T00:28:49.096Z,-0.90
2023-03-01T00:31:19.797Z,-0.90
2023-03-01T00:33:47.365Z,-1.00
2023-03-01T00:36:16.085Z,-1.00
2023-03-01T00:38:45.219Z,-1.00
2023-03-01T00:41:16.076Z,-1.00
2023-03-01T00:43:43.812Z,-1.00
2023-03-01T00:46:16.295Z,-1.00
2023-03-01T00:48:44.127Z,-1.00
2023-03-01T00:51:17.465Z,-1.00
2023-03-01T00:53:44.874Z,-1.10
2023-03-01T00:56:13.218Z,-1.10
2023-03-01T00:58:40.596Z,-1.10
2023-03-01T01:01:25.802Z,-1.20
2023-03-01T01:03:58.962Z,-1.10
2023-03-01T01:06:32.453Z,-1.20
2023-03-01T01:08:59.920Z,-1.20
2023-03-01T01:11:28.559Z,-1.20
2023-03-01T01:13:55.806Z,-1.20
2023-03-01T01:16:24.510Z,-1.30
2023-03-01T01:18:51.857Z,-1.30
2023-03-01T01:21:21.519Z,-1.30
2023-03-01T01:23:48.989Z,-1.30
2023-03-01T01:26:25.094Z,-1.30
2023-03-01T01:28:52.518Z,-1.30
2023-03-01T01:31:19.786Z,-1.40
2023-03-01T01:33:47.294Z,-1.40
2023-03-01T01:36:14.471Z,-1.40
2023-03-01T01:38:43.526Z,-1.30
2023-03-01T01:41:12.454Z,-1.30
2023-03-01T01:43:49.316Z,-1.40
2023-03-01T01:46:32.937Z,-1.40
2023-03-01T01:49:14.750Z,-1.50
2023-03-01T01:51:43.509Z,-1.60
2023-03-01T01:54:40.089Z,-1.70
2023-03-01T01:57:13.605Z,-1.50
2023-03-01T01:59:41.116Z,-1.60
2023-03-01T02:02:08.283Z,-1.50
2023-03-01T02:04:35.625Z,-1.50
2023-03-01T02:07:23.696Z,-1.50
2023-03-01T02:09:53.361Z,-1.40
2023-03-01T02:12:24.406Z,-1.40
2023-03-01T02:14:51.567Z,-1.40
2023-03-01T02:17:18.756Z,-1.40
2023-03-01T02:20:47.032Z,-1.40
2023-03-01T02:23:14.217Z,-1.40
2023-03-01T02:26:02.865Z,-1.40
2023-03-01T02:28:34.941Z,-1.50
2023-03-01T02:31:20.791Z,-1.50
2023-03-01T02:33:49.504Z,-1.60
2023-03-01T02:36:22.948Z,-1.60
2023-03-01T02:38:51.009Z,-1.70
2023-03-01T02:41:18.602Z,-1.80
2023-03-01T02:43:45.949Z,-1.80
2023-03-01T02:46:25.146Z,-1.80
2023-03-01T02:48:55.076Z,-1.80
2023-03-01T02:51:42.644Z,-1.80
2023-03-01T02:54:15.906Z,-1.80
2023-03-01T02:56:43.184Z,-1.80
2023-03-01T02:59:10.386Z,-1.80
2023-03-01T03:01:37.709Z,-1.90
2023-03-01T03:04:08.675Z,-1.90
2023-03-01T03:06:36.410Z,-1.90
2023-03-01T03:09:04.663Z,-1.90
2023-03-01T03:11:33.335Z,-1.90
2023-03-01T03:14:00.536Z,-1.90
2023-03-01T03:16:27.844Z,-1.90
2023-03-01T03:18:55.036Z,-1.90
2023-03-01T03:21:22.178Z,-2.00
2023-03-01T03:23:49.283Z,-2.00
2023-03-01T03:26:16.478Z,-2.00
2023-03-01T03:28:43.605Z,-2.00
2023-03-01T03:31:10.744Z,-2.00
2023-03-01T03:33:37.995Z,-2.00
2023-03-01T03:36:05.708Z,-1.90
2023-03-01T03:38:32.834Z,-2.00
2023-03-01T03:41:08.560Z,-1.90
2023-03-01T03:43:37.525Z,-1.90
2023-03-01T03:46:06.821Z,-1.90
2023-03-01T03:48:44.909Z,-1.90
2023-03-01T03:51:16.341Z,-1.90
2023-03-01T03:53:43.761Z,-1.90
2023-03-01T03:56:10.988Z,-1.90
2023-03-01T03:58:38.209Z,-2.00
2023-03-01T04:01:05.551Z,-1.90
2023-03-01T04:03:33.214Z,-2.00
2023-03-01T04:06:01.023Z,-2.00
2023-03-01T04:08:28.482Z,-2.00
2023-03-01T04:11:01.712Z,-2.10
2023-03-01T04:13:28.938Z,-2.00
2023-03-01T04:15:56.125Z,-2.10
2023-03-01T04:18:24.720Z,-2.10
2023-03-01T04:20:53.299Z,-2.00
2023-03-01T04:23:21.699Z,-2.00
2023-03-01T04:25:59.314Z,-2.00
2023-03-01T04:28:29.093Z,-2.00
2023-03-01T04:30:57.680Z,-2.10
2023-03-01T04:33:26.071Z,-2.10
2023-03-01T04:35:53.350Z,-2.10
2023-03-01T04:38:20.712Z,-2.20
2023-03-01T04:40:47.890Z,-2.10
2023-03-01T04:43:18.596Z,-2.10
2023-03-01T04:45:46.099Z,-2.20
2023-03-01T04:48:13.247Z,-2.20
2023-03-01T04:50:40.374Z,-2.30
2023-03-01T04:53:07.533Z,-2.30
2023-03-01T04:55:34.914Z,-2.40
2023-03-01T04:58:02.077Z,-2.40
2023-03-01T05:00:29.253Z,-2.40
2023-03-01T05:02:58.697Z,-2.40
2023-03-01T05:05:37.170Z,-2.40
2023-03-01T05:08:07.393Z,-2.40
2023-03-01T05:10:36.419Z,-2.50
2023-03-01T05:13:04.050Z,-2.50
2023-03-01T05:15:31.904Z,-2.60
2023-03-01T05:18:00.462Z,-2.70
2023-03-01T05:20:30.945Z,-2.70
2023-03-01T05:23:00.696Z,-2.70
2023-03-01T05:25:28.220Z,-2.60
2023-03-01T05:27:55.348Z,-2.50
2023-03-01T05:30:22.645Z,-2.40
2023-03-01T05:32:56.595Z,-2.40
2023-03-01T05:35:24.232Z,-2.30
2023-03-01T05:37:51.728Z,-2.30
2023-03-01T05:40:25.908Z,-2.30
2023-03-01T05:42:57.492Z,-2.30
2023-03-01T05:45:25.906Z,-2.20
2023-03-01T05:47:53.202Z,-2.30
2023-03-01T05:50:29.377Z,-2.30
2023-03-01T05:53:02.227Z,-2.30
2023-03-01T05:55:30.250Z,-2.20
2023-03-01T05:58:00.654Z,-2.30
2023-03-01T06:00:28.343Z,-2.20
2023-03-01T06:02:58.506Z,-2.20
2023-03-01T06:05:25.930Z,-2.10
2023-03-01T06:07:54.232Z,-2.00
2023-03-01T06:10:22.901Z,-1.90
2023-03-01T06:12:50.226Z,-1.80
2023-03-01T06:15:18.011Z,-1.70
2023-03-01T06:17:46.903Z,-1.60
2023-03-01T06:20:21.750Z,-1.50
2023-03-01T06:22:50.193Z,-1.40
2023-03-01T06:25:20.213Z,-1.30
2023-03-01T06:27:47.720Z,-1.20
2023-03-01T06:30:16.851Z,-1.10
2023-03-01T06:32:44.285Z,-0.90
2023-03-01T06:35:21.161Z,-0.90
2023-03-01T06:37:49.153Z,-0.80
2023-03-01T06:40:16.954Z,-0.70
2023-03-01T06:42:50.188Z,-0.50
2023-03-01T06:45:20.619Z,-0.50
2023-03-01T06:47:47.909Z,-0.40
2023-03-01T06:50:18.569Z,-0.30
2023-03-01T06:55:13.865Z,-0.10
2023-03-01T06:57:43.506Z,0.10
2023-03-01T07:00:11.668Z,0.20
2023-03-01T07:02:38.864Z,0.30
2023-03-01T07:05:06.802Z,0.50
2023-03-01T07:07:34.088Z,0.60
2023-03-01T07:10:01.281Z,0.60
2023-03-01T07:12:28.426Z,0.70
2023-03-01T07:14:58.953Z,0.80
2023-03-01T07:17:26.205Z,0.90
2023-03-01T07:19:53.299Z,1.00
2023-03-01T07:22:20.663Z,1.10
2023-03-01T07:24:47.889Z,1.20
2023-03-01T07:27:18.503Z,1.40
2023-03-01T07:29:45.695Z,1.50
2023-03-01T07:32:13.297Z,1.60
2023-03-01T07:34:42.051Z,1.70
2023-03-01T07:37:09.185Z,1.70
2023-03-01T07:39:36.305Z,1.80
2023-03-01T07:42:03.472Z,1.90
2023-03-01T07:44:30.624Z,1.90
2023-03-01T07:46:59.999Z,2.00
2023-03-01T07:49:30.243Z,2.10
2023-03-01T07:51:57.500Z,2.10
2023-03-01T07:54:24.867Z,2.20
2023-03-01T07:56:52.159Z,2.20
2023-03-01T07:59:19.429Z,2.30
2023-03-01T08:01:47.771Z,2.40
2023-03-01T08:04:18.074Z,2.40
2023-03-01T08:06:45.247Z,2.50
2023-03-01T08:09:12.473Z,2.60
2023-03-01T08:11:39.773Z,2.60
2023-03-01T08:14:07.539Z,2.60
2023-03-01T08:16:36.418Z,2.70
2023-03-01T08:19:12.038Z,2.70
2023-03-01T08:21:39.258Z,2.90
2023-03-01T08:24:07.322Z,2.90
2023-03-01T08:26:35.802Z,3.00
2023-03-01T08:29:05.414Z,3.10
2023-03-01T08:31:38.921Z,3.20
2023-03-01T08:34:09.166Z,3.20
2023-03-01T08:36:39.270Z,3.30
2023-03-01T08:39:07.344Z,3.40
2023-03-01T08:41:34.500Z,3.40
2023-03-01T08:44:01.687Z,3.50
2023-03-01T08:46:37.741Z,3.60
2023-03-01T08:49:06.622Z,3.60
2023-03-01T08:51:37.624Z,3.70
2023-03-01T08:54:19.124Z,3.70
2023-03-01T08:56:46.320Z,3.70
2023-03-01T08:59:13.915Z,3.80
2023-03-01T09:01:44.321Z,3.90
2023-03-01T09:04:12.657Z,4.00
2023-03-01T09:07:02.513Z,4.10
2023-03-01T09:09:30.239Z,4.20
2023-03-01T09:12:00.296Z,4.20
2023-03-01T09:14:30.272Z,4.20
2023-03-01T09:16:57.808Z,4.20
2023-03-01T09:19:27.244Z,4.20
2023-03-01T09:21:55.740Z,4.20
2023-03-01T09:24:24.156Z,4.20
2023-03-01T09:26:56.308Z,4.20
2023-03-01T09:29:26.714Z,4.30
2023-03-01T09:31:56.177Z,4.30
2023-03-01T09:34:24.492Z,4.20
2023-03-01T09:36:52.193Z,4.00
2023-03-01T09:39:19.496Z,3.90
2023-03-01T09:42:05.573Z,3.70
2023-03-01T09:44:47.198Z,3.60
2023-03-01T09:47:22.821Z,3.50
2023-03-01T09:50:20.207Z,3.40
2023-03-01T09:53:05.467Z,3.30
2023-03-01T09:55:46.329Z,3.20
2023-03-01T09:58:54.449Z,3.10
2023-03-01T10:01:49.642Z,3.20
2023-03-01T10:04:55.282Z,3.30
2023-03-01T10:08:10.751Z,3.40
2023-03-01T10:10:43.980Z,3.40
2023-03-01T10:13:50.269Z,3.40
2023-03-01T10:17:02.173Z,3.40
2023-03-01T10:19:43.608Z,3.30
2023-03-01T10:22:22.764Z,3.40
2023-03-01T10:24:53.616Z,3.40
2023-03-01T10:27:38.552Z,3.50
2023-03-01T10:30:18.659Z,3.60
2023-03-01T10:32:45.867Z,3.60
2023-03-01T10:35:31.028Z,3.50
2023-03-01T10:38:09.048Z,3.60
2023-03-01T10:41:20.797Z,3.60
2023-03-01T10:43:57.220Z,3.60
2023-03-01T10:47:21.472Z,3.60
2023-03-01T10:50:22.309Z,3.60
2023-03-01T10:53:02.284Z,3.60
2023-03-01T10:55:39.983Z,3.70
2023-03-01T10:58:21.792Z,3.60
2023-03-01T11:01:06.966Z,3.50
2023-03-01T11:03:46.634Z,3.60
2023-03-01T11:06:13.701Z,3.70
2023-03-01T11:08:47.248Z,3.70
2023-03-01T11:11:32.569Z,3.80
2023-03-01T11:14:26.833Z,3.80
2023-03-01T11:17:24.364Z,3.90
2023-03-01T11:20:15.773Z,3.90
2023-03-01T11:22:58.146Z,3.90
2023-03-01T11:25:56.071Z,3.90
2023-03-01T11:28:23.821Z,3.80
2023-03-01T11:31:09.548Z,3.80
2023-03-01T11:33:47.712Z,3.80
2023-03-01T11:36:18.535Z,3.90
2023-03-01T11:38:45.897Z,3.90
2023-03-01T11:41:26.422Z,3.90
2023-03-01T11:44:02.511Z,4.10
2023-03-01T11:46:36.231Z,4.20
2023-03-01T11:49:15.319Z,4.10
2023-03-01T11:52:25.951Z,4.20
2023-03-01T11:55:33.136Z,4.20
2023-03-01T11:58:20.306Z,4.30
2023-03-01T12:01:25.041Z,4.30
2023-03-01T12:04:10.131Z,4.20
2023-03-01T12:06:58.999Z,4.30
2023-03-01T12:09:46.286Z,4.30
2023-03-01T12:12:30.533Z,4.30
2023-03-01T12:15:25.687Z,4.40
2023-03-01T12:18:00.586Z,4.50
2023-03-01T12:20:44.695Z,4.50
2023-03-01T12:23:57.073Z,4.50
2023-03-01T12:26:35.776Z,4.50
2023-03-01T12:29:32.201Z,4.60
2023-03-01T12:32:23.704Z,4.60
2023-03-01T12:35:24.223Z,4.70
2023-03-01T12:38:01.175Z,4.70
2023-03-01T12:40:44.343Z,4.60
2023-03-01T12:44:03.478Z,4.60
2023-03-01T12:46:53.765Z,4.80
2023-03-01T12:50:01.377Z,4.80
2023-03-01T12:52:37.114Z,4.80
2023-03-01T12:55:07.874Z,4.80
2023-03-01T12:57:45.192Z,4.80
2023-03-01T13:01:15.424Z,4.70
2023-03-01T13:04:12.241Z,4.70
2023-03-01T13:07:04.033Z,4.60
2023-03-01T13:09:44.604Z,4.60
2023-03-01T13:13:13.608Z,4.60
2023-03-01T13:15:41.270Z,4.70
2023-03-01T13:18:29.784Z,4.70
2023-03-01T13:20:58.409Z,4.70
2023-03-01T13:23:34.890Z,4.70
2023-03-01T13:26:18.375Z,4.70
2023-03-01T13:28:45.394Z,4.70
2023-03-01T13:31:32.523Z,4.70
2023-03-01T13:34:01.177Z,4.70
2023-03-01T13:36:37.237Z,4.70
2023-03-01T13:39:29.321Z,4.70
2023-03-01T13:41:58.531Z,4.70
2023-03-01T13:44:27.086Z,4.60
2023-03-01T13:46:58.862Z,4.60
2023-03-01T13:49:45.955Z,4.50
2023-03-01T13:52:57.034Z,4.60
2023-03-01T13:55:46.627Z,4.60
2023-03-01T13:58:32.524Z,4.50
2023-03-01T14:01:07.950Z,4.50
2023-03-01T14:03:44.719Z,4.60
2023-03-01T14:06:22.246Z,4.60
2023-03-01T14:08:53.887Z,4.60
2023-03-01T14:11:39.120Z,4.60
2023-03-01T14:14:39.995Z,4.60
2023-03-01T14:17:34.786Z,4.70
2023-03-01T14:20:28.401Z,4.70
2023-03-01T14:23:03.525Z,4.70
2023-03-01T14:25:37.621Z,4.70
2023-03-01T14:28:28.730Z,4.70
2023-03-01T14:30:58.367Z,4.70
2023-03-01T14:33:37.492Z,4.60
2023-03-01T14:36:13.038Z,4.70
2023-03-01T14:38:46.118Z,4.70
2023-03-01T14:41:25.459Z,4.70
2023-03-01T14:44:03.263Z,4.70
2023-03-01T14:46:34.968Z,4.70
2023-03-01T14:49:25.533Z,4.70
2023-03-01T14:52:00.109Z,4.70
2023-03-01T14:54:49.300Z,4.70
2023-03-01T14:57:25.293Z,4.70
2023-03-01T14:59:55.887Z,4.60
2023-03-01T15:02:27.335Z,4.60
2023-03-01T15:05:08.915Z,4.60
2023-03-01T15:07:43.990Z,4.60
2023-03-01T15:10:24.539Z,4.60
2023-03-01T15:12:57.236Z,4.70
2023-03-01T15:15:39.386Z,4.60
2023-03-01T15:18:21.622Z,4.60
2023-03-01T15:20:49.948Z,4.70
2023-03-01T15:23:25.446Z,4.60
2023-03-01T15:25:57.491Z,4.60
2023-03-01T15:28:35.838Z,4.60
2023-03-01T15:31:20.731Z,4.60
2023-03-01T15:33:50.927Z,4.60
2023-03-01T15:36:42.753Z,4.60
2023-03-01T15:39:40.278Z,4.60
2023-03-01T15:42:29.110Z,4.60
2023-03-01T15:45:21.885Z,4.60
2023-03-01T15:47:54.740Z,4.50
2023-03-01T15:50:27.105Z,4.50
2023-03-01T15:52:54.425Z,4.40
2023-03-01T15:55:30.448Z,4.40
2023-03-01T15:58:18.797Z,4.40
2023-03-01T16:00:59.812Z,4.30
2023-03-01T16:03:27.934Z,4.30
2023-03-01T16:05:55.359Z,4.20
2023-03-01T16:08:22.847Z,4.20
2023-03-01T16:10:52.203Z,4.20
2023-03-01T16:13:20.412Z,4.20
2023-03-01T16:15:47.620Z,4.20
2023-03-01T16:18:14.776Z,4.10
2023-03-01T16:20:42.139Z,4.20
2023-03-01T16:23:12.120Z,4.20
2023-03-01T16:25:39.520Z,4.10
2023-03-01T16:28:10.162Z,4.10
2023-03-01T16:30:38.754Z,4.10
2023-03-01T16:33:24.394Z,4.10
2023-03-01T16:35:56.958Z,4.10
2023-03-01T16:38:24.154Z,4.10
2023-03-01T16:40:52.386Z,4.10
2023-03-01T16:43:19.619Z,4.00
2023-03-01T16:45:47.768Z,4.10
2023-03-01T16:48:15.108Z,4.00
2023-03-01T16:50:42.282Z,4.00
2023-03-01T16:53:09.503Z,4.00
2023-03-01T16:55:36.853Z,4.00
2023-03-01T16:58:05.227Z,3.90
2023-03-01T17:00:32.483Z,3.90
2023-03-01T17:02:59.742Z,3.90
2023-03-01T17:05:27.025Z,3.90
2023-03-01T17:07:56.617Z,3.90
2023-03-01T17:10:25.029Z,3.90
2023-03-01T17:12:55.711Z,3.80
2023-03-01T17:15:25.043Z,3.80
2023-03-01T17:17:52.314Z,3.80
2023-03-01T17:20:19.694Z,3.70
2023-03-01T17:22:47.136Z,3.70
2023-03-01T17:25:14.499Z,3.70
2023-03-01T17:27:44.290Z,3.70
2023-03-01T17:30:18.753Z,3.60
2023-03-01T17:32:46.013Z,3.60
2023-03-01T17:35:14.747Z,3.60
2023-03-01T17:37:46.455Z,3.50
2023-03-01T17:40:13.979Z,3.50
2023-03-01T17:42:41.152Z,3.40
2023-03-01T17:45:08.767Z,3.40
2023-03-01T17:47:35.997Z,3.40
2023-03-01T17:50:05.588Z,3.30
2023-03-01T17:52:32.852Z,3.30
2023-03-01T17:55:00.097Z,3.20
2023-03-01T17:57:27.307Z,3.20
2023-03-01T17:59:54.485Z,3.20
2023-03-01T18:02:21.755Z,3.10
2023-03-01T18:04:50.649Z,3.10
2023-03-01T18:07:23.080Z,3.00
2023-03-01T18:09:50.236Z,3.00
2023-03-01T18:12:17.347Z,2.90
2023-03-01T18:14:44.494Z,2.90
2023-03-01T18:17:16.213Z,2.90
2023-03-01T18:19:46.073Z,2.80
2023-03-01T18:22:13.619Z,2.80
2023-03-01T18:24:43.001Z,2.80
2023-03-01T18:27:10.323Z,2.70
2023-03-01T18:29:37.958Z,2.70
2023-03-01T18:32:05.999Z,2.60
2023-03-01T18:34:34.816Z,2.60
2023-03-01T18:37:10.284Z,2.60
2023-03-01T18:39:38.239Z,2.60
2023-03-01T18:42:06.119Z,2.50
2023-03-01T18:44:33.964Z,2.50
2023-03-01T18:47:01.399Z,2.40
2023-03-01T18:49:28.627Z,2.30
2023-03-01T18:51:58.490Z,2.30
2023-03-01T18:54:29.931Z,2.20
2023-03-01T18:56:57.269Z,2.20
2023-03-01T18:59:27.375Z,2.20
2023-03-01T19:01:55.685Z,2.20
2023-03-01T19:04:28.778Z,2.10
2023-03-01T19:06:56.128Z,2.10
2023-03-01T19:09:23.273Z,2.10
2023-03-01T19:11:58.738Z,2.00
2023-03-01T19:14:25.972Z,2.00
2023-03-01T19:16:53.298Z,1.90
2023-03-01T19:19:20.455Z,1.80
2023-03-01T19:21:59.297Z,1.80
2023-03-01T19:24:27.315Z,1.80
2023-03-01T19:26:57.528Z,1.70
2023-03-01T19:29:25.096Z,1.70
2023-03-01T19:32:02.551Z,1.70
2023-03-01T19:34:30.193Z,1.70
2023-03-01T19:36:57.330Z,1.60
2023-03-01T19:39:26.409Z,1.60
2023-03-01T19:41:53.663Z,1.60
2023-03-01T19:44:32.436Z,1.50
2023-03-01T19:47:00.097Z,1.50
2023-03-01T19:49:32.218Z,1.50
2023-03-01T19:51:59.783Z,1.50
2023-03-01T19:54:30.309Z,1.40
2023-03-01T19:56:57.446Z,1.40
2023-03-01T19:59:25.476Z,1.40
2023-03-01T20:02:09.662Z,1.40
2023-03-01T20:04:41.359Z,1.40
2023-03-01T20:07:08.540Z,1.30
2023-03-01T20:09:35.715Z,1.30
2023-03-01T20:12:02.887Z,1.30
2023-03-01T20:14:39.728Z,1.30
2023-03-01T20:17:07.128Z,1.30
2023-03-01T20:19:34.460Z,1.30
2023-03-01T20:22:04.234Z,1.20
2023-03-01T20:24:32.787Z,1.20
2023-03-01T20:27:01.137Z,1.20
2023-03-01T20:29:31.480Z,1.10
2023-03-01T20:31:59.014Z,1.10
2023-03-01T20:34:29.249Z,1.10
2023-03-01T20:36:56.849Z,1.00
2023-03-01T20:39:36.598Z,0.90
2023-03-01T20:42:04.918Z,0.90
2023-03-01T20:44:32.809Z,0.90
2023-03-01T20:47:01.049Z,0.80
2023-03-01T20:49:31.611Z,0.80
2023-03-01T20:52:05.652Z,0.80
2023-03-01T20:54:33.061Z,0.80
2023-03-01T20:57:00.229Z,0.70
2023-03-01T20:59:34.915Z,0.70
2023-03-01T21:02:02.196Z,0.60
2023-03-01T21:04:34.363Z,0.60
2023-03-01T21:07:01.675Z,0.60
2023-03-01T21:09:28.864Z,0.60
2023-03-01T21:11:56.056Z,0.60
2023-03-01T21:14:26.403Z,0.60
2023-03-01T21:16:53.572Z,0.60
2023-03-01T21:19:29.276Z,0.60
2023-03-01T21:21:56.451Z,0.50
2023-03-01T21:24:23.539Z,0.50
2023-03-01T21:26:50.728Z,0.40
2023-03-01T21:29:17.846Z,0.40
2023-03-01T21:31:51.218Z,0.40
2023-03-01T21:34:25.698Z,0.30
2023-03-01T21:37:01.904Z,0.30
2023-03-01T21:39:36.947Z,0.20
2023-03-01T21:42:07.563Z,0.20
2023-03-01T21:44:37.480Z,0.20
2023-03-01T21:47:05.599Z,0.20
2023-03-01T21:49:35.418Z,0.10
2023-03-01T21:52:02.653Z,0.10
2023-03-01T21:54:29.755Z,0.10
2023-03-01T21:57:06.867Z,0.10
2023-03-01T21:59:41.375Z,0.10
2023-03-01T22:02:13.506Z,0.10
2023-03-01T22:04:43.947Z,0.10
2023-03-01T22:07:11.082Z,0.10
2023-03-01T22:09:41.193Z,0.10
2023-03-01T22:12:08.320Z,0.10
2023-03-01T22:14:35.628Z,0.10
2023-03-01T22:17:02.992Z,0.10
2023-03-01T22:19:33.586Z,0.10
2023-03-01T22:22:00.793Z,0.10
2023-03-01T22:24:28.708Z,0.10
2023-03-01T22:26:56.755Z,0.10
2023-03-01T22:29:26.588Z,0.10
2023-03-01T22:32:00.139Z,0.10
2023-03-01T22:34:35.932Z,0.10
2023-03-01T22:37:03.967Z,0.00
2023-03-01T22:39:31.084Z,0.00
2023-03-01T22:41:58.213Z,-0.10
2023-03-01T22:44:25.521Z,-0.10
2023-03-01T22:46:59.237Z,-0.20
2023-03-01T22:49:35.212Z,-0.20
2023-03-01T22:52:02.470Z,-0.20
2023-03-01T22:54:31.232Z,-0.30
2023-03-01T22:57:04.129Z,-0.30
2023-03-01T22:59:31.265Z,-0.30
2023-03-01T23:01:59.486Z,-0.40
2023-03-01T23:04:26.729Z,-0.40
2023-03-01T23:06:54.215Z,-0.40
2023-03-01T23:09:33.846Z,-0.40
2023-03-01T23:12:02.086Z,-0.40
2023-03-01T23:14:31.091Z,-0.50
2023-03-01T23:17:00.664Z,-0.50
2023-03-01T23:19:28.658Z,-0.50
2023-03-01T23:21:57.200Z,-0.50
2023-03-01T23:24:31.247Z,-0.60
2023-03-01T23:27:00.805Z,-0.60
2023-03-01T23:29:28.013Z,-0.60
2023-03-01T23:31:58.660Z,-0.60
2023-03-01T23:34:26.334Z,-0.70
2023-03-01T23:36:54.457Z,-0.70
2023-03-01T23:39:21.875Z,-0.80
2023-03-01T23:41:49.075Z,-0.80
2023-03-01T23:44:18.977Z,-0.80
2023-03-01T23:46:46.828Z,-0.80
2023-03-01T23:49:15.948Z,-0.80
2023-03-01T23:51:47.738Z,-0.80
2023-03-01T23:54:17.984Z,-0.70
2023-03-01T23:56:45.380Z,-0.70
2023-03-01T23:59:18.503Z,-0.70
